Terminal Aerodrome Forecast
Issued by NWS

Home | Current Version | Previous Version | Text Only | Print | Product List | Glossary Off
Versions: 1 2 3 4 5 6 7 8 9 10 11 12 13 14 15

000
FTUS43 KSGF 222300
TAFJLN
TAF
KJLN 222320Z 2300/2324 14006KT P6SM SCT250
     FM231100 17006KT P6SM BKN100 PROB30 2312/2318 19008KT P6SM
      -SHRA BKN035 OVC050
     FM231800 22008KT P6SM SCT150=

USA.gov is the U.S. government's official web portal to all federal, state and local government web resources and services.